Terminal Aerodrome Forecast
Issued by NWS

Home | Current Version | Previous Version | Graphics & Text | Print | Product List | Glossary On
Versions: 1 2 3 4 5 6 7 8 9 10 11 12 13 14 15 16 17 18 19 20 21
000
FTUS43 KGRB 230520
TAFATW
TAF
KATW 230520Z 2306/2406 10011KT 6SM -SN BR SCT012 OVC035
      WS020/16040KT
      TEMPO 2306/2309 1SM -SNPL BR BKN010
     FM230900 14008KT 3SM -FZRAPL BR OVC008 WS020/18035KT
     FM231100 18007KT 3SM -RA BR OVC006 WS020/23035KT
     FM231500 23009G16KT 5SM -DZ BR OVC007
     FM231700 27010KT P6SM BKN023=

USA.gov is the U.S. government's official web portal to all federal, state and local government web resources and services.